createdAt,value
2018-11-12T19:41:06.392Z,48.40
2018-11-12T19:43:35.431Z,55.40
2018-11-12T19:46:04.880Z,59.30
2018-11-12T19:48:33.875Z,61.60
2018-11-12T19:51:02.932Z,62.70
2018-11-12T19:53:31.901Z,62.90
2018-11-12T19:56:00.928Z,63.00
2018-11-12T19:58:29.951Z,63.10
2018-11-12T20:00:58.984Z,63.40
2018-11-12T20:03:28.068Z,62.80
2018-11-12T20:05:57.064Z,62.60
2018-11-12T20:08:26.090Z,62.40
2018-11-12T20:10:55.082Z,62.30
2018-11-12T20:13:24.161Z,62.40
2018-11-12T20:15:53.164Z,62.10
2018-11-12T20:18:22.249Z,62.00
2018-11-12T20:20:51.267Z,62.30
2018-11-12T20:23:20.318Z,61.90
2018-11-12T20:25:49.318Z,61.60
2018-11-12T20:28:18.409Z,61.30
2018-11-12T20:30:47.586Z,61.30
2018-11-12T20:33:16.560Z,61.20
2018-11-12T20:35:45.547Z,61.70
2018-11-12T20:38:14.566Z,61.20
2018-11-12T20:40:43.539Z,61.10
2018-11-12T20:43:12.572Z,60.90
2018-11-12T20:45:41.569Z,61.00
2018-11-12T20:48:10.613Z,61.10
2018-11-12T20:50:39.592Z,60.80
2018-11-12T20:53:08.615Z,61.00
2018-11-12T20:55:37.820Z,62.50
2018-11-12T20:58:07.004Z,61.10
2018-11-12T21:00:35.942Z,61.40
2018-11-12T21:03:05.414Z,61.10
2018-11-12T21:05:34.545Z,61.20
2018-11-12T21:08:03.578Z,60.90
2018-11-12T21:10:32.681Z,60.70
2018-11-12T21:13:01.739Z,60.60
2018-11-12T21:15:30.737Z,60.60
2018-11-12T21:17:59.743Z,60.50
2018-11-12T21:20:28.744Z,60.60
2018-11-12T21:25:26.602Z,60.40
2018-11-12T21:27:55.596Z,60.10
2018-11-12T21:30:25.833Z,60.70
2018-11-12T21:32:54.824Z,60.50
2018-11-12T21:35:24.058Z,60.40
2018-11-12T21:37:54.117Z,60.40
2018-11-12T21:40:24.355Z,61.20
2018-11-12T21:42:53.462Z,59.20
2018-11-12T21:45:24.059Z,56.90
2018-11-12T21:47:53.093Z,58.60
2018-11-12T21:50:22.676Z,56.60
2018-11-12T21:52:51.731Z,55.60
2018-11-12T21:55:20.819Z,56.80
2018-11-12T21:57:49.859Z,57.30
2018-11-12T22:00:26.455Z,57.80
2018-11-12T22:03:04.287Z,57.60
2018-11-12T22:05:33.784Z,57.40
2018-11-12T22:08:03.794Z,57.50
2018-11-12T22:10:32.788Z,57.70
2018-11-12T22:13:01.819Z,57.60
2018-11-12T22:15:30.947Z,57.40
2018-11-12T22:17:59.985Z,57.50
2018-11-12T22:20:29.451Z,58.20
2018-11-12T22:22:58.439Z,57.80
2018-11-12T22:25:27.480Z,58.60
2018-11-12T22:27:56.533Z,57.80
2018-11-12T22:30:29.613Z,57.90
2018-11-12T22:32:59.836Z,58.10
2018-11-12T22:35:28.898Z,58.00
2018-11-12T22:38:03.829Z,58.20
2018-11-12T22:40:33.654Z,58.10
2018-11-12T22:43:03.760Z,58.30
2018-11-12T22:45:32.902Z,58.50
2018-11-12T22:48:01.956Z,58.20
2018-11-12T22:50:31.904Z,58.60
2018-11-12T22:53:00.908Z,59.60
2018-11-12T22:55:29.915Z,59.00
2018-11-12T22:58:05.813Z,60.00
2018-11-12T23:00:38.031Z,58.50
2018-11-12T23:03:07.739Z,58.10
2018-11-12T23:05:36.727Z,57.90
2018-11-12T23:08:05.782Z,58.00
2018-11-12T23:10:34.792Z,57.80
2018-11-12T23:13:03.866Z,57.50
2018-11-12T23:15:32.859Z,57.70
2018-11-12T23:18:01.875Z,57.30
2018-11-12T23:20:30.974Z,57.90
2018-11-12T23:22:59.997Z,57.50
2018-11-12T23:25:29.011Z,57.20
2018-11-12T23:27:58.036Z,57.30
2018-11-12T23:30:27.136Z,57.10
2018-11-12T23:32:56.128Z,57.10
2018-11-12T23:35:25.765Z,57.10
2018-11-12T23:37:54.739Z,57.10
2018-11-12T23:40:23.731Z,57.00
2018-11-12T23:42:52.711Z,57.50
2018-11-12T23:45:22.816Z,56.90
2018-11-12T23:47:51.819Z,56.80
2018-11-12T23:50:22.046Z,58.40
2018-11-12T23:52:52.084Z,57.70
2018-11-12T23:55:21.974Z,56.90
2018-11-12T23:57:51.279Z,56.90
